createdAt,value
2022-12-03T00:00:30.834Z,8.60
2022-12-03T00:02:57.433Z,9.35
2022-12-03T00:05:23.946Z,8.20
2022-12-03T00:07:50.490Z,8.23
2022-12-03T00:10:17.185Z,9.30
2022-12-03T00:12:43.638Z,8.60
2022-12-03T00:15:11.034Z,8.85
2022-12-03T00:17:37.843Z,9.40
2022-12-03T00:20:06.274Z,8.90
2022-12-03T00:22:32.756Z,9.07
2022-12-03T00:24:59.281Z,9.27
2022-12-03T00:27:25.799Z,8.27
2022-12-03T00:29:52.216Z,8.98
2022-12-03T00:32:18.624Z,9.70
2022-12-03T00:34:47.167Z,8.87
2022-12-03T00:37:13.689Z,8.13
2022-12-03T00:39:40.149Z,9.70
2022-12-03T00:42:06.592Z,8.57
2022-12-03T00:44:33.101Z,8.07
2022-12-03T00:46:59.667Z,7.97
2022-12-03T00:49:26.150Z,9.60
2022-12-03T00:51:52.653Z,8.55
2022-12-03T00:54:19.157Z,9.23
2022-12-03T00:56:45.588Z,9.48
2022-12-03T00:59:12.129Z,8.93
2022-12-03T01:01:38.682Z,9.73
2022-12-03T01:04:05.359Z,8.85
2022-12-03T01:06:31.823Z,8.60
2022-12-03T01:08:58.348Z,9.77
2022-12-03T01:11:41.247Z,8.60
2022-12-03T01:14:19.025Z,8.32
2022-12-03T01:16:46.260Z,8.80
2022-12-03T01:19:16.810Z,7.88
2022-12-03T01:21:45.509Z,8.80
2022-12-03T01:24:12.503Z,9.67
2022-12-03T01:26:38.990Z,9.27
2022-12-03T01:29:06.101Z,8.63
2022-12-03T01:31:51.228Z,7.70
2022-12-03T01:34:17.682Z,8.38
2022-12-03T01:36:44.212Z,8.97
2022-12-03T01:39:10.800Z,8.57
2022-12-03T01:41:38.130Z,9.32
2022-12-03T01:44:12.585Z,8.63
2022-12-03T01:46:40.852Z,9.80
2022-12-03T01:49:13.917Z,8.70
2022-12-03T01:51:40.376Z,8.07
2022-12-03T01:54:16.774Z,8.30
2022-12-03T01:56:43.604Z,8.95
2022-12-03T01:59:15.690Z,9.32
2022-12-03T02:01:42.454Z,8.73
2022-12-03T02:04:13.202Z,8.60
2022-12-03T02:06:40.376Z,9.18
2022-12-03T02:09:08.598Z,9.32
2022-12-03T02:11:39.079Z,8.60
2022-12-03T02:14:10.389Z,8.73
2022-12-03T02:16:38.058Z,9.55
2022-12-03T02:19:09.873Z,9.20
2022-12-03T02:21:41.444Z,8.88
2022-12-03T02:24:19.971Z,8.75
2022-12-03T02:26:46.540Z,9.67
2022-12-03T02:29:13.175Z,9.75
2022-12-03T02:31:39.690Z,9.40
2022-12-03T02:34:09.079Z,9.02
2022-12-03T02:36:37.353Z,8.68
2022-12-03T02:39:05.248Z,9.20
2022-12-03T02:41:50.656Z,9.57
2022-12-03T02:44:17.182Z,9.02
2022-12-03T02:46:43.810Z,8.27
2022-12-03T02:49:10.328Z,8.88
2022-12-03T02:51:36.772Z,8.57
2022-12-03T02:54:04.062Z,8.80
2022-12-03T02:56:32.445Z,8.75
2022-12-03T02:59:03.645Z,9.23
2022-12-03T03:01:30.405Z,8.48
2022-12-03T03:03:57.953Z,8.47
2022-12-03T03:06:24.786Z,9.15
2022-12-03T03:08:51.896Z,8.55
2022-12-03T03:11:18.550Z,8.63
2022-12-03T03:13:45.207Z,9.32
2022-12-03T03:16:12.286Z,9.43
2022-12-03T03:18:38.991Z,9.40
2022-12-03T03:21:06.452Z,9.55
2022-12-03T03:23:33.376Z,9.40
2022-12-03T03:26:04.697Z,9.43
2022-12-03T03:28:32.333Z,8.73
2022-12-03T03:31:02.164Z,8.95
2022-12-03T03:33:28.987Z,8.32
2022-12-03T03:35:55.816Z,9.05
2022-12-03T03:38:24.048Z,8.73
2022-12-03T03:40:51.909Z,9.67
2022-12-03T03:43:21.568Z,8.82
2022-12-03T03:45:48.967Z,9.73
2022-12-03T03:48:15.727Z,9.52
2022-12-03T03:50:43.342Z,9.30
2022-12-03T03:53:12.126Z,8.73
2022-12-03T03:55:39.469Z,8.82
2022-12-03T03:58:06.323Z,9.82
2022-12-03T04:00:32.938Z,9.23
2022-12-03T04:02:59.376Z,8.45
2022-12-03T04:05:26.202Z,10.23
2022-12-03T04:07:52.784Z,9.18
2022-12-03T04:10:37.935Z,9.25
2022-12-03T04:13:05.008Z,9.52
2022-12-03T04:15:31.753Z,9.25
2022-12-03T04:18:16.849Z,9.53
2022-12-03T04:20:43.715Z,9.40
2022-12-03T04:23:10.311Z,9.95
2022-12-03T04:26:08.638Z,9.43
2022-12-03T04:28:50.195Z,9.70
2022-12-03T04:31:35.157Z,9.13
2022-12-03T04:34:19.954Z,9.55
2022-12-03T04:36:47.180Z,9.30
2022-12-03T04:39:13.672Z,9.27
2022-12-03T04:41:40.164Z,9.70
2022-12-03T04:44:24.980Z,8.90
2022-12-03T04:46:51.380Z,9.95
2022-12-03T04:49:17.805Z,8.73
2022-12-03T04:51:44.309Z,9.25
2022-12-03T04:54:10.728Z,9.50
2022-12-03T04:56:37.193Z,10.10
2022-12-03T04:59:04.269Z,9.77
2022-12-03T05:01:30.806Z,10.10
2022-12-03T05:03:57.290Z,10.07
2022-12-03T05:06:23.733Z,9.63
2022-12-03T05:08:50.301Z,9.50
2022-12-03T05:11:16.771Z,9.60
2022-12-03T05:13:43.373Z,10.00
2022-12-03T05:16:10.368Z,10.35
2022-12-03T05:18:36.949Z,11.48
2022-12-03T05:21:03.740Z,10.60
2022-12-03T05:23:30.161Z,10.82
2022-12-03T05:25:56.587Z,11.05
2022-12-03T05:28:24.208Z,11.82
2022-12-03T05:30:51.721Z,9.77
2022-12-03T05:33:18.589Z,10.63
2022-12-03T05:35:44.998Z,10.90
2022-12-03T05:38:11.617Z,10.95
2022-12-03T05:40:38.157Z,11.43
2022-12-03T05:43:04.705Z,11.48
2022-12-03T05:45:36.977Z,10.67
2022-12-03T05:48:05.175Z,12.02
2022-12-03T05:50:34.066Z,11.98
2022-12-03T05:53:00.810Z,12.35
2022-12-03T05:55:27.622Z,10.75
2022-12-03T05:57:54.170Z,10.87
2022-12-03T06:00:26.272Z,11.90
2022-12-03T06:02:52.996Z,10.82
2022-12-03T06:05:20.957Z,11.00
2022-12-03T06:07:48.793Z,10.98
2022-12-03T06:10:19.340Z,11.80
2022-12-03T06:12:46.149Z,11.20
2022-12-03T06:15:15.125Z,12.27
2022-12-03T06:17:41.742Z,11.23
2022-12-03T06:20:11.192Z,10.90
2022-12-03T06:22:37.622Z,11.47
2022-12-03T06:25:07.103Z,10.82
2022-12-03T06:27:34.200Z,11.70
2022-12-03T06:30:00.616Z,12.13
2022-12-03T06:32:29.507Z,11.63
2022-12-03T06:34:56.181Z,12.43
2022-12-03T06:37:22.856Z,10.65
2022-12-03T06:39:49.286Z,11.35
2022-12-03T06:42:15.780Z,11.18
2022-12-03T06:44:42.274Z,11.15
2022-12-03T06:47:08.773Z,11.33
2022-12-03T06:49:35.290Z,11.15
2022-12-03T06:52:01.836Z,11.48
2022-12-03T06:54:28.392Z,11.68
2022-12-03T06:56:54.836Z,11.07
2022-12-03T06:59:21.302Z,11.30
2022-12-03T07:01:47.792Z,10.35
2022-12-03T07:04:14.288Z,10.68
2022-12-03T07:06:40.806Z,11.65
2022-12-03T07:09:07.371Z,10.73
2022-12-03T07:11:39.879Z,11.20
2022-12-03T07:14:08.315Z,10.45
2022-12-03T07:16:35.929Z,11.40
2022-12-03T07:19:03.829Z,10.32
2022-12-03T07:21:30.497Z,9.63
2022-12-03T07:23:56.936Z,10.30
2022-12-03T07:26:23.683Z,10.15
2022-12-03T07:28:50.190Z,10.75
2022-12-03T07:31:16.753Z,10.43
2022-12-03T07:33:43.345Z,10.52
2022-12-03T07:36:10.158Z,10.47
2022-12-03T07:38:36.767Z,10.73
2022-12-03T07:41:03.228Z,10.85
2022-12-03T07:43:29.752Z,11.02
2022-12-03T07:45:56.389Z,11.27
2022-12-03T07:48:22.863Z,11.03
2022-12-03T07:50:49.439Z,11.98
2022-12-03T07:53:16.012Z,10.88
2022-12-03T07:55:42.468Z,11.07
2022-12-03T07:58:09.341Z,11.80
2022-12-03T08:00:35.938Z,10.73
2022-12-03T08:03:02.422Z,10.88
2022-12-03T08:05:29.764Z,11.23
2022-12-03T08:07:56.638Z,10.57
2022-12-03T08:10:25.498Z,11.18
2022-12-03T08:12:53.617Z,11.27
2022-12-03T08:15:25.723Z,11.60
2022-12-03T08:17:55.997Z,11.82
2022-12-03T08:20:24.475Z,10.60
2022-12-03T08:22:53.272Z,11.57
2022-12-03T08:25:24.280Z,11.07
2022-12-03T08:27:53.309Z,11.32
2022-12-03T08:30:20.333Z,10.68
2022-12-03T08:32:47.975Z,10.88
2022-12-03T08:35:24.546Z,11.95
2022-12-03T08:38:01.240Z,11.57
2022-12-03T08:40:46.548Z,11.18
2022-12-03T08:43:25.900Z,12.90
2022-12-03T08:45:54.714Z,11.50
2022-12-03T08:48:27.229Z,11.30
2022-12-03T08:50:56.016Z,12.23
2022-12-03T08:53:30.450Z,12.63
2022-12-03T08:56:03.968Z,12.30
2022-12-03T08:58:40.425Z,11.55
2022-12-03T09:01:12.937Z,11.35
2022-12-03T09:03:47.505Z,11.10
2022-12-03T09:06:14.097Z,12.10
2022-12-03T09:08:40.553Z,11.80
2022-12-03T09:11:07.017Z,11.57
2022-12-03T09:13:33.769Z,11.18
2022-12-03T09:16:00.221Z,11.80
2022-12-03T09:18:26.738Z,11.18
2022-12-03T09:20:53.309Z,11.68
2022-12-03T09:23:19.787Z,11.68
2022-12-03T09:25:46.225Z,12.05
2022-12-03T09:28:12.688Z,11.30
2022-12-03T09:30:39.136Z,12.00
2022-12-03T09:33:05.719Z,11.30
2022-12-03T09:35:32.236Z,12.25
2022-12-03T09:37:58.671Z,11.95
2022-12-03T09:40:25.272Z,11.90
2022-12-03T09:42:52.170Z,11.13
2022-12-03T09:45:18.731Z,12.18
2022-12-03T09:47:48.693Z,10.73
2022-12-03T09:50:19.596Z,9.32
2022-12-03T09:52:46.924Z,9.60
2022-12-03T09:55:23.620Z,11.10
2022-12-03T09:57:52.355Z,9.45
2022-12-03T10:00:25.031Z,8.95
2022-12-03T10:02:54.114Z,8.60
2022-12-03T10:05:22.493Z,8.70
2022-12-03T10:07:50.727Z,8.00
2022-12-03T10:10:22.798Z,9.20
2022-12-03T10:12:50.686Z,9.00
2022-12-03T10:15:19.278Z,7.72
2022-12-03T10:17:47.706Z,9.30
2022-12-03T10:20:16.691Z,8.65
2022-12-03T10:22:43.234Z,9.18
2022-12-03T10:25:12.811Z,8.93
2022-12-03T10:27:40.172Z,9.80
2022-12-03T10:30:19.835Z,9.70
2022-12-03T10:32:51.227Z,8.90
2022-12-03T10:35:23.553Z,9.38
2022-12-03T10:38:03.768Z,8.95
2022-12-03T10:40:33.362Z,10.05
2022-12-03T10:43:20.188Z,9.70
2022-12-03T10:46:09.567Z,9.73
2022-12-03T10:48:36.728Z,9.90
2022-12-03T10:51:04.274Z,10.55
2022-12-03T10:53:32.986Z,10.10
2022-12-03T10:56:01.963Z,10.50
2022-12-03T10:58:40.049Z,11.52
2022-12-03T11:01:15.695Z,9.93
2022-12-03T11:03:42.354Z,10.50
2022-12-03T11:06:14.958Z,10.65
2022-12-03T11:08:44.604Z,11.33
2022-12-03T11:11:20.309Z,11.10
2022-12-03T11:13:50.682Z,10.75
2022-12-03T11:16:38.865Z,10.77
2022-12-03T11:19:38.652Z,11.77
2022-12-03T11:22:05.197Z,10.57
2022-12-03T11:24:34.421Z,10.38
2022-12-03T11:27:08.156Z,9.70
2022-12-03T11:29:58.678Z,9.38
2022-12-03T11:32:45.078Z,8.77
2022-12-03T11:35:14.197Z,9.33
2022-12-03T11:37:40.948Z,8.23
2022-12-03T11:40:16.609Z,8.60
2022-12-03T11:42:44.794Z,8.93
2022-12-03T11:45:16.268Z,7.65
2022-12-03T11:47:46.824Z,8.13
2022-12-03T11:50:23.315Z,8.80
2022-12-03T11:52:55.061Z,7.22
2022-12-03T11:55:35.745Z,7.47
2022-12-03T11:58:04.992Z,6.55
2022-12-03T12:00:32.252Z,6.37
2022-12-03T12:02:58.899Z,5.97
2022-12-03T12:05:25.412Z,8.05
2022-12-03T12:07:52.866Z,7.40
2022-12-03T12:10:39.230Z,7.18
2022-12-03T12:13:06.293Z,7.40
2022-12-03T12:15:38.667Z,7.07
2022-12-03T12:18:40.730Z,6.40
2022-12-03T12:21:44.258Z,6.78
2022-12-03T12:24:46.837Z,7.43
2022-12-03T13:12:36.431Z,7.63
2022-12-03T13:15:02.962Z,7.80
2022-12-03T13:17:29.499Z,9.18
2022-12-03T13:20:07.747Z,7.80
2022-12-03T13:22:34.660Z,7.80
2022-12-03T13:25:43.925Z,7.82
2022-12-03T13:28:07.989Z,8.43
2022-12-03T13:30:34.483Z,8.93
2022-12-03T13:33:13.283Z,10.50
2022-12-03T13:35:42.731Z,13.40
2022-12-03T13:38:15.335Z,16.63
2022-12-03T13:40:42.258Z,12.38
2022-12-03T13:43:16.905Z,11.15
2022-12-03T13:45:49.240Z,11.32
2022-12-03T13:48:23.131Z,11.17
2022-12-03T13:50:50.273Z,12.05
2022-12-03T13:53:25.808Z,13.40
2022-12-03T13:55:57.758Z,11.35
2022-12-03T13:58:24.197Z,12.70
2022-12-03T14:00:51.012Z,11.07
2022-12-03T14:03:17.664Z,12.38
2022-12-03T14:05:44.103Z,16.23
2022-12-03T14:08:10.576Z,12.95
2022-12-03T14:10:37.121Z,11.98
2022-12-03T14:13:03.595Z,12.40
2022-12-03T14:15:30.053Z,11.75
2022-12-03T14:17:56.542Z,11.85
2022-12-03T14:20:22.959Z,11.82
2022-12-03T14:22:49.480Z,11.07
2022-12-03T14:25:16.116Z,11.33
2022-12-03T14:27:42.625Z,11.57
2022-12-03T14:30:09.937Z,11.75
2022-12-03T14:32:36.354Z,11.10
2022-12-03T14:35:08.297Z,9.98
2022-12-03T14:37:38.390Z,9.83
2022-12-03T14:40:08.784Z,9.90
2022-12-03T14:42:36.529Z,9.73
2022-12-03T14:45:03.152Z,9.45
2022-12-03T14:47:29.592Z,7.80
2022-12-03T14:49:56.562Z,9.80
2022-12-03T14:52:23.329Z,8.07
2022-12-03T14:54:49.780Z,9.05
2022-12-03T14:57:16.505Z,9.48
2022-12-03T14:59:44.048Z,9.88
2022-12-03T15:02:11.610Z,11.33
2022-12-03T15:04:39.349Z,10.80
2022-12-03T15:07:06.183Z,9.80
2022-12-03T15:09:32.945Z,10.15
2022-12-03T15:12:00.097Z,9.23
2022-12-03T15:14:26.709Z,9.70
2022-12-03T15:16:53.197Z,8.70
2022-12-03T15:19:19.673Z,8.93
2022-12-03T15:21:48.356Z,8.18
2022-12-03T15:24:14.857Z,8.02
2022-12-03T15:26:41.365Z,8.43
2022-12-03T15:29:07.836Z,9.15
2022-12-03T15:31:34.496Z,10.55
2022-12-03T15:34:01.113Z,8.90
2022-12-03T15:36:27.598Z,10.50
2022-12-03T15:38:54.033Z,11.50
2022-12-03T15:41:21.276Z,11.95
2022-12-03T15:43:52.731Z,11.13
2022-12-03T15:46:22.516Z,11.00
2022-12-03T15:48:49.678Z,12.75
2022-12-03T15:51:16.365Z,12.93
2022-12-03T15:53:42.877Z,11.70
2022-12-03T15:56:09.529Z,12.23
2022-12-03T15:58:36.055Z,12.38
2022-12-03T16:01:02.583Z,12.88
2022-12-03T16:03:29.358Z,12.77
2022-12-03T16:05:56.005Z,12.27
2022-12-03T16:08:22.763Z,12.85
2022-12-03T16:10:49.390Z,13.77
2022-12-03T16:13:15.848Z,12.63
2022-12-03T16:15:42.382Z,13.17
2022-12-03T16:18:09.258Z,14.05
2022-12-03T16:20:35.740Z,12.88
2022-12-03T16:23:02.195Z,12.57
2022-12-03T16:25:28.743Z,12.73
2022-12-03T16:27:56.444Z,12.83
2022-12-03T16:30:24.537Z,11.90
2022-12-03T16:32:51.088Z,13.52
2022-12-03T16:35:17.582Z,13.45
2022-12-03T16:37:44.524Z,13.52
2022-12-03T16:40:11.368Z,13.53
2022-12-03T16:42:37.830Z,13.05
2022-12-03T16:45:04.609Z,11.82
2022-12-03T16:47:34.173Z,11.93
2022-12-03T16:50:07.551Z,12.40
2022-12-03T16:52:34.735Z,11.97
2022-12-03T16:55:01.452Z,11.90
2022-12-03T16:57:33.421Z,12.65
2022-12-03T17:00:00.397Z,12.30
2022-12-03T17:02:27.684Z,12.95
2022-12-03T17:04:54.663Z,13.30
2022-12-03T17:07:21.274Z,13.07
2022-12-03T17:09:47.820Z,12.50
2022-12-03T17:12:14.263Z,12.43
2022-12-03T17:14:40.721Z,12.35
2022-12-03T17:17:07.174Z,13.83
2022-12-03T17:19:33.642Z,12.77
2022-12-03T17:22:00.095Z,13.35
2022-12-03T17:24:26.587Z,11.93
2022-12-03T17:26:53.044Z,12.95
2022-12-03T17:29:19.541Z,13.77
2022-12-03T17:31:46.109Z,11.10
2022-12-03T17:34:12.617Z,12.98
2022-12-03T17:36:39.054Z,11.63
2022-12-03T17:39:05.509Z,12.52
2022-12-03T17:41:31.964Z,12.17
2022-12-03T17:43:58.438Z,12.15
2022-12-03T17:46:25.004Z,13.25
2022-12-03T17:48:51.519Z,13.30
2022-12-03T17:51:20.778Z,13.00
2022-12-03T17:53:47.280Z,12.80
2022-12-03T17:56:13.796Z,13.35
2022-12-03T17:58:40.264Z,12.60
2022-12-03T18:01:08.561Z,14.05
2022-12-03T18:03:35.088Z,13.35
2022-12-03T18:06:02.050Z,14.80
2022-12-03T18:08:28.780Z,13.50
2022-12-03T18:10:55.317Z,14.20
2022-12-03T18:13:22.109Z,12.60
2022-12-03T18:15:48.733Z,12.77
2022-12-03T18:18:15.209Z,14.07
2022-12-03T18:20:41.763Z,13.32
2022-12-03T18:23:08.222Z,13.60
2022-12-03T18:25:34.741Z,13.57
2022-12-03T18:28:01.168Z,13.82
2022-12-03T18:30:27.616Z,13.07
2022-12-03T18:32:54.433Z,12.65
2022-12-03T18:35:21.113Z,14.30
2022-12-03T18:37:49.499Z,13.10
2022-12-03T18:40:23.368Z,12.68
2022-12-03T18:42:50.170Z,12.73
2022-12-03T18:45:16.913Z,12.60
2022-12-03T18:47:43.919Z,14.30
2022-12-03T18:50:11.647Z,12.63
2022-12-03T18:52:38.568Z,13.25
2022-12-03T18:55:06.266Z,13.00
2022-12-03T18:57:32.682Z,12.40
2022-12-03T18:59:59.283Z,12.15
2022-12-03T19:02:54.148Z,11.57
2022-12-03T19:05:12.360Z,12.82
2022-12-03T19:07:38.972Z,12.23
2022-12-03T19:10:06.080Z,12.40
2022-12-03T19:12:33.126Z,13.30
2022-12-03T19:14:59.590Z,12.95
2022-12-03T19:17:27.217Z,13.02
2022-12-03T19:19:54.382Z,13.23
2022-12-03T19:22:21.266Z,13.95
2022-12-03T19:24:47.785Z,12.20
2022-12-03T19:27:14.599Z,12.25
2022-12-03T19:29:41.346Z,11.55
2022-12-03T19:32:08.941Z,11.10
2022-12-03T19:34:35.797Z,11.75
2022-12-03T19:37:02.274Z,13.45
2022-12-03T19:39:28.755Z,11.75
2022-12-03T19:41:55.266Z,12.73
2022-12-03T19:44:21.855Z,13.13
2022-12-03T19:46:51.173Z,13.02
2022-12-03T19:49:20.865Z,11.90
2022-12-03T19:51:47.616Z,11.65
2022-12-03T19:54:14.551Z,12.32
2022-12-03T19:56:41.028Z,12.80
2022-12-03T19:59:07.897Z,13.55
2022-12-03T20:01:35.757Z,13.25
2022-12-03T20:04:03.622Z,11.30
2022-12-03T20:06:35.371Z,11.68
2022-12-03T20:09:08.054Z,12.13
2022-12-03T20:11:35.449Z,12.90
2022-12-03T20:14:08.124Z,12.10
2022-12-03T20:16:35.546Z,12.05
2022-12-03T20:19:05.233Z,11.82
2022-12-03T20:21:33.405Z,11.83
2022-12-03T20:24:00.120Z,12.80
2022-12-03T20:26:27.014Z,12.80
2022-12-03T20:28:55.041Z,12.85
2022-12-03T20:31:26.894Z,11.88
2022-12-03T20:33:56.619Z,12.73
2022-12-03T20:36:23.957Z,12.30
2022-12-03T20:38:58.903Z,12.50
2022-12-03T20:41:25.595Z,12.52
2022-12-03T20:43:53.551Z,13.43
2022-12-03T20:46:21.974Z,12.23
2022-12-03T20:48:48.900Z,13.00
2022-12-03T20:51:18.266Z,12.77
2022-12-03T20:53:44.904Z,12.55
2022-12-03T20:56:18.553Z,11.75
2022-12-03T20:58:44.981Z,13.43
2022-12-03T21:01:15.872Z,14.13
2022-12-03T21:03:43.073Z,11.75
2022-12-03T21:06:10.315Z,12.90
2022-12-03T21:08:41.559Z,12.40
2022-12-03T21:11:14.922Z,13.30
2022-12-03T21:13:43.538Z,12.77
2022-12-03T21:16:13.458Z,12.70
2022-12-03T21:18:40.352Z,12.00
2022-12-03T21:21:08.559Z,12.95
2022-12-03T21:23:35.411Z,12.30
2022-12-03T21:26:26.829Z,12.27
2022-12-03T21:28:54.186Z,12.38
2022-12-03T21:31:25.157Z,12.90
2022-12-03T21:33:55.932Z,13.80
2022-12-03T21:36:23.370Z,12.30
2022-12-03T21:38:49.876Z,13.32
2022-12-03T21:41:17.193Z,12.68
2022-12-03T21:43:44.536Z,12.68
2022-12-03T21:47:11.455Z,12.80
2022-12-03T21:49:01.543Z,12.83
2022-12-03T21:51:28.072Z,11.45
2022-12-03T21:53:54.536Z,12.70
2022-12-03T21:56:21.026Z,12.70
2022-12-03T21:58:47.607Z,12.68
2022-12-03T22:01:18.487Z,12.73
2022-12-03T22:03:45.669Z,12.38
2022-12-03T22:06:12.539Z,12.32
2022-12-03T22:08:39.651Z,12.68
2022-12-03T22:11:12.293Z,12.82
2022-12-03T22:13:40.229Z,13.63
2022-12-03T22:16:12.209Z,12.32
2022-12-03T22:18:39.247Z,12.88
2022-12-03T22:21:07.545Z,13.25
2022-12-03T22:23:34.343Z,12.55
2022-12-03T22:26:03.070Z,14.30
2022-12-03T22:28:29.615Z,13.18
2022-12-03T22:30:56.654Z,13.95
2022-12-03T22:33:23.348Z,12.55
2022-12-03T22:36:01.063Z,12.90
2022-12-03T22:38:29.928Z,14.07
2022-12-03T22:40:56.934Z,13.40
2022-12-03T22:43:24.466Z,12.18
2022-12-03T22:45:55.257Z,10.60
2022-12-03T22:48:22.795Z,13.18
2022-12-03T22:50:51.091Z,12.97
2022-12-03T22:53:18.138Z,13.13
2022-12-03T22:55:44.604Z,14.25
2022-12-03T22:58:11.742Z,14.02
2022-12-03T23:00:40.712Z,13.65
2022-12-03T23:03:07.923Z,12.70
2022-12-03T23:05:38.515Z,14.68
2022-12-03T23:08:10.380Z,13.85
2022-12-03T23:10:40.276Z,14.38
2022-12-03T23:13:07.460Z,15.00
2022-12-03T23:15:34.133Z,14.33
2022-12-03T23:18:00.693Z,13.98
2022-12-03T23:20:27.700Z,14.07
2022-12-03T23:22:54.868Z,14.23
2022-12-03T23:25:22.137Z,13.80
2022-12-03T23:27:48.812Z,14.07
2022-12-03T23:30:16.738Z,15.15
2022-12-03T23:32:44.425Z,13.75
2022-12-03T23:35:12.371Z,14.05
2022-12-03T23:37:38.960Z,14.10
2022-12-03T23:40:06.237Z,14.53
2022-12-03T23:42:32.653Z,14.43
2022-12-03T23:44:59.167Z,14.73
2022-12-03T23:47:25.623Z,14.52
2022-12-03T23:49:52.276Z,14.93
2022-12-03T23:52:18.928Z,14.37
2022-12-03T23:54:45.626Z,15.18
2022-12-03T23:57:12.716Z,16.00
2022-12-03T23:59:39.693Z,15.50
